M I D A S
Marine Information and Data Acquisition System
Tripno 484 of the Zeeleeuw from 2003-05-05 06:53:56 to 2003-05-05 15:13:46
Back to CruiseResearch ActivitiesStationsMapUnderway DataData graphs

EquipmentUnitsComment
TimeDGPSUTC
LatitudeDGPSDM.mWGS84
LongitudeDGPSDM.mWGS84
HeadingGyrodeg 
SOGDGPSknotsSpeed over ground
COGDGPSdegCourse over ground
DepthEcho soundermeters200 kHz
Missing or incorrect values are displayed as -999
Navigation data collected by the RV Zeeleeuw from 2003-05-05 06:53:56 to 2003-05-05 15:13:46
                                                                                    Next 1000 lines
Time Latitude Longitude Heading SOG COG Depth
2003-05-05 06:54:02 51°13.6 2°56.1 116.6   182 7.2
2003-05-05 06:54:08 51°13.6 2°56.1 116.2   190 7.2
2003-05-05 06:54:14 51°13.6 2°56.1 115.9   179 5.5
2003-05-05 06:54:18 51°13.6 2°56.1 115.5   187 7.2
2003-05-05 06:54:22 51°13.6 2°56.1 115.1   184 5.5
2003-05-05 06:54:28 51°13.6 2°56.1 114.6   178 7.2
2003-05-05 06:54:34 51°13.6 2°56.1 114 0.1 183 7.2
2003-05-05 06:54:38 51°13.6 2°56.1 113.6 0.1 183 7.2
2003-05-05 06:54:42 51°13.6 2°56.1 113.2   191 7.2
2003-05-05 06:54:48 51°13.6 2°56.1 112.7   181 7.2
2003-05-05 06:54:54 51°13.6 2°56.1 112.1   286 7.2
2003-05-05 06:54:58 51°13.6 2°56.1 111.9 0.1 287 7.2
2003-05-05 06:55:02 51°13.6 2°56.1 111.8 0.5 299 7.2
2003-05-05 06:55:08 51°13.6 2°56.1 111.8 0.9 295 7.2
2003-05-05 06:55:12 51°13.6 2°56.1 111.8 1.4 294 7.3
2003-05-05 06:55:18 51°13.6 2°56.1 111.9 1.7 294 5.5
2003-05-05 06:55:22 51°13.6 2°56.09 112 2.1 294 7.8
2003-05-05 06:55:30 51°13.6 2°56.09 112.2 2.4 291 -999
2003-05-05 06:55:34 51°13.6 2°56.08 112.5 2.6 294 -999
2003-05-05 06:55:40 51°13.61 2°56.07 112.7 2.8 292 -999
2003-05-05 06:55:46 51°13.61 2°56.07 113.1 2.9 293 -999
2003-05-05 06:55:52 51°13.61 2°56.06 113.2 3.1 292 -999
2003-05-05 06:55:58 51°13.61 2°56.05 113.2 3.4 292 -999
2003-05-05 06:56:02 51°13.61 2°56.05 113.3 3.7 291 -999
2003-05-05 06:56:08 51°13.62 2°56.04 113.4 3.9 291 -999
2003-05-05 06:56:14 51°13.62 2°56.03 113.7 4.1 291 -999
2003-05-05 06:56:18 51°13.62 2°56.02 114.1 4.1 291 -999
2003-05-05 06:56:22 51°13.62 2°56.01 114.7 4.2 291 -999
2003-05-05 06:56:28 51°13.62 2°56 115.4 4.2 291 -999
2003-05-05 06:56:34 51°13.63 2°55.99 116.2 4.4 292 -999
2003-05-05 06:56:38 51°13.63 2°55.99 116.8 4.4 293 -999
2003-05-05 06:56:44 51°13.63 2°55.97 117.6 4.5 294 -999
2003-05-05 06:56:48 51°13.63 2°55.97 118.2 4.6 295 -999
2003-05-05 06:56:54 51°13.64 2°55.96 118.7 4.7 295 -999
2003-05-05 06:56:58 51°13.64 2°55.95 119.1 4.8 296 -999
2003-05-05 06:57:04 51°13.64 2°55.94 119.3 4.9 296 -999
2003-05-05 06:57:08 51°13.64 2°55.93 119.4 5 296 -999
2003-05-05 06:57:14 51°13.65 2°55.92 119.3 5.1 296 -999
2003-05-05 06:57:18 51°13.65 2°55.91 119 5.1 296 -999
2003-05-05 06:57:24 51°13.65 2°55.9 118.5 5 295 -999
2003-05-05 06:57:28 51°13.66 2°55.89 117.7 4.9 295 -999
2003-05-05 06:57:34 51°13.66 2°55.88 116.8 4.8 294 -999
2003-05-05 06:57:38 51°13.66 2°55.87 115.6 4.7 293 -999
2003-05-05 06:57:44 51°13.67 2°55.86 114.5 4.6 292 -999
2003-05-05 06:57:48 51°13.67 2°55.85 113.2 4.4 291 -999
2003-05-05 06:57:54 51°13.67 2°55.84 111.8 4.3 291 -999
2003-05-05 06:57:58 51°13.67 2°55.83 110.3 4.2 289 -999
2003-05-05 06:58:04 51°13.67 2°55.82 108.8 4 288 -999
2003-05-05 06:58:08 51°13.68 2°55.82 107.1 3.9 287 -999
2003-05-05 06:58:14 51°13.68 2°55.81 105.3 3.8 286 -999
2003-05-05 06:58:18 51°13.68 2°55.8 103.3 3.6 284 -999
2003-05-05 06:58:24 51°13.68 2°55.79 101.7 3.5 283 -999
2003-05-05 06:58:28 51°13.68 2°55.79 99.4 3.4 281 -999
2003-05-05 06:58:34 51°13.68 2°55.78 97.7 3.1 281 5.2
2003-05-05 06:58:38 51°13.68 2°55.77 96.3 2.8 279 5.1
2003-05-05 06:58:42 51°13.68 2°55.77 94.3 2 281 10.7
2003-05-05 06:58:48 51°13.68 2°55.76 92 1.7 281 10.8
2003-05-05 06:58:52 51°13.68 2°55.76 89.1 1.4 284 10.7
2003-05-05 06:58:58 51°13.68 2°55.76 85.6 1 288 10.9
2003-05-05 06:59:02 51°13.68 2°55.76 82 0.8 298 10.8
2003-05-05 06:59:06 51°13.68 2°55.75 78.3 0.5 312 11
2003-05-05 06:59:12 51°13.68 2°55.75 74.4 0.5 350 11.1
2003-05-05 06:59:16 51°13.69 2°55.75 70.1 0.6 10 11
2003-05-05 06:59:20 51°13.69 2°55.75 65.4 0.8 17 -999
2003-05-05 06:59:26 51°13.69 2°55.76 60.2 1 26 11
2003-05-05 06:59:30 51°13.69 2°55.76 53.7 1.2 23 10.8
2003-05-05 06:59:34 51°13.69 2°55.76 48.1 1.3 25 10.8
2003-05-05 06:59:38 51°13.69 2°55.76 43.5 1.6 20 10.7
2003-05-05 06:59:44 51°13.69 2°55.76 36.3 1.7 17 -999
2003-05-05 06:59:48 51°13.7 2°55.76 31.6 1.9 13 10.7
2003-05-05 06:59:54 51°13.7 2°55.76 25.5 2.1 8 10.7
2003-05-05 06:59:58 51°13.7 2°55.76 19.5 2.2 4 10.6
2003-05-05 07:00:02 51°13.7 2°55.76 13.6 2.4 358 10.7
2003-05-05 07:00:08 51°13.71 2°55.76 7.7 2.5 354 10.7
2003-05-05 07:00:14 51°13.71 2°55.76 1.8 2.6 348 -999
2003-05-05 07:00:18 51°13.71 2°55.76 355.9 2.7 345 10.5
2003-05-05 07:00:22 51°13.72 2°55.76 350 2.8 338 10.4
2003-05-05 07:00:28 51°13.72 2°55.75 344.2 2.9 335 10.6
2003-05-05 07:00:34 51°13.73 2°55.75 338.7 3 329 9.9
2003-05-05 07:00:38 51°13.73 2°55.75 333.3 3.1 327 9.4
2003-05-05 07:00:42 51°13.73 2°55.74 328.6 3.3 321 9.2
2003-05-05 07:00:48 51°13.74 2°55.74 325.7 3.4 322 9
2003-05-05 07:00:54 51°13.74 2°55.73 324.5 3.5 319 9
2003-05-05 07:00:58 51°13.74 2°55.73 325 3.6 321 9
2003-05-05 07:01:02 51°13.75 2°55.73 326.3 3.9 320 9.1
2003-05-05 07:01:08 51°13.75 2°55.72 327.5 4.1 323 9
2003-05-05 07:01:14 51°13.76 2°55.71 328 4.4 321 9
2003-05-05 07:01:18 51°13.76 2°55.71 328.1 4.5 323 8.9
2003-05-05 07:01:22 51°13.77 2°55.7 328.5 4.8 322 9.2
2003-05-05 07:01:28 51°13.77 2°55.69 329.5 5 324 9.2
2003-05-05 07:01:34 51°13.78 2°55.69 330.4 5.2 324 9.3
2003-05-05 07:01:38 51°13.78 2°55.68 331.4 5.3 327 9.3
2003-05-05 07:01:42 51°13.79 2°55.68 331.7 5.5 325 9.4
2003-05-05 07:01:48 51°13.8 2°55.67 332.3 5.6 328 9.4
2003-05-05 07:01:54 51°13.8 2°55.66 332.8 5.8 327 9.5
2003-05-05 07:01:58 51°13.81 2°55.65 333.6 5.8 330 9.5
2003-05-05 07:02:02 51°13.82 2°55.65 334.4 6 329 9.6
2003-05-05 07:02:08 51°13.82 2°55.64 335.1 6 331 9.6
2003-05-05 07:02:14 51°13.83 2°55.63 335.9 6.1 331 9.4
2003-05-05 07:02:18 51°13.84 2°55.63 336.3 6.2 332 9.4
2003-05-05 07:02:22 51°13.85 2°55.62 336.3 6.3 331 9.2
2003-05-05 07:02:28 51°13.86 2°55.61 336.3 6.3 332 9.2
2003-05-05 07:02:34 51°13.86 2°55.61 336.5 6.4 331 9.2
2003-05-05 07:02:38 51°13.87 2°55.6 336.8 6.5 331 9.6
2003-05-05 07:02:42 51°13.88 2°55.59 336.9 6.6 332 9.2
2003-05-05 07:02:48 51°13.89 2°55.59 336.8 6.6 330 9.3
2003-05-05 07:02:54 51°13.9 2°55.58 336.8 6.8 332 9.3
2003-05-05 07:02:58 51°13.9 2°55.57 338.2 6.8 332 9.3
2003-05-05 07:03:02 51°13.91 2°55.57 339.4 6.9 333 9.3
2003-05-05 07:03:08 51°13.92 2°55.56 339.6 6.9 334 9.3
2003-05-05 07:03:14 51°13.93 2°55.55 339.6 7 334 9.3
2003-05-05 07:03:18 51°13.94 2°55.54 339.8 7.1 335 9.3
2003-05-05 07:03:22 51°13.95 2°55.54 340 7.2 335 9.3
2003-05-05 07:03:28 51°13.96 2°55.53 339.8 7.3 335 -999
2003-05-05 07:03:34 51°13.97 2°55.52 339.7 7.4 335 9.3
2003-05-05 07:03:38 51°13.98 2°55.52 339.6 7.4 335 9.3
2003-05-05 07:03:44 51°13.99 2°55.51 339.8 7.5 336 9.3
2003-05-05 07:03:48 51°13.99 2°55.5 340.4 7.6 336 9.3
2003-05-05 07:03:54 51°14.01 2°55.49 340.4 7.6 336 9.3
2003-05-05 07:03:58 51°14.01 2°55.49 340 7.7 334 9.3
2003-05-05 07:04:04 51°14.03 2°55.48 339.7 7.7 335 9.4
2003-05-05 07:04:08 51°14.03 2°55.48 339.6 7.7 334 9.4
2003-05-05 07:04:14 51°14.04 2°55.47 339.4 7.8 334 9.3
2003-05-05 07:04:18 51°14.05 2°55.46 339.1 7.9 333 9.2
2003-05-05 07:04:24 51°14.06 2°55.45 339.3 8.1 334 9.2
2003-05-05 07:04:28 51°14.07 2°55.44 339.5 8.3 334 9.2
2003-05-05 07:04:34 51°14.08 2°55.43 339.6 8.4 334 9.3
2003-05-05 07:04:38 51°14.09 2°55.43 339.8 8.5 334 9
2003-05-05 07:04:44 51°14.1 2°55.42 340 8.6 334 9
2003-05-05 07:04:48 51°14.11 2°55.41 340 8.7 334 8.9
2003-05-05 07:04:54 51°14.13 2°55.4 339.9 8.8 334 9
2003-05-05 07:04:58 51°14.14 2°55.4 340.7 8.9 335 -999
2003-05-05 07:05:04 51°14.15 2°55.39 340.8 8.9 334 -999
2003-05-05 07:05:10 51°14.16 2°55.37 340.3 9 334 -999
2003-05-05 07:05:14 51°14.17 2°55.37 338.7 9.1 332 9
2003-05-05 07:05:18 51°14.18 2°55.36 336.6 9.2 331 9
2003-05-05 07:05:24 51°14.19 2°55.35 334.5 9.3 328 9
2003-05-05 07:05:30 51°14.21 2°55.33 333.1 9.4 326 8.9
2003-05-05 07:05:34 51°14.22 2°55.32 331.6 9.4 325 9.4
2003-05-05 07:05:38 51°14.22 2°55.31 330 9.4 322 -999
2003-05-05 07:05:44 51°14.24 2°55.3 327.7 9.5 321 -999
2003-05-05 07:05:50 51°14.25 2°55.28 324.8 9.5 318 -999
2003-05-05 07:05:54 51°14.26 2°55.27 322.5 9.6 316 -999
2003-05-05 07:06:00 51°14.27 2°55.25 320.9 9.6 314 9.2
2003-05-05 07:06:04 51°14.27 2°55.24 319.3 9.6 313 9.2
2003-05-05 07:06:10 51°14.29 2°55.22 318.2 9.7 312 9.2
2003-05-05 07:06:14 51°14.29 2°55.21 317.5 9.7 311 9.2
2003-05-05 07:06:18 51°14.3 2°55.2 316.7 9.7 311 9.3
2003-05-05 07:06:22 51°14.31 2°55.18 315.9 9.8 311 9.3
2003-05-05 07:06:28 51°14.32 2°55.16 315.3 9.8 309 9.3
2003-05-05 07:06:34 51°14.33 2°55.14 315.2 9.7 310 9.4
2003-05-05 07:06:38 51°14.33 2°55.13 315.9 9.8 310 9.3
2003-05-05 07:06:42 51°14.34 2°55.12 316.4 9.9 311 9.4
2003-05-05 07:06:48 51°14.35 2°55.1 317.1 10.1 311 9.7
2003-05-05 07:06:54 51°14.36 2°55.08 317.8 10.4 313 9.9
2003-05-05 07:06:58 51°14.37 2°55.06 319 10.6 313 10
2003-05-05 07:07:02 51°14.38 2°55.05 321.4 10.9 316 9.8
2003-05-05 07:07:08 51°14.39 2°55.03 323.7 11 317 9.9
2003-05-05 07:07:14 51°14.41 2°55.01 326.3 11.3 319 9.8
2003-05-05 07:07:18 51°14.42 2°55 329.5 11.4 322 9.7
2003-05-05 07:07:22 51°14.43 2°54.98 332.8 11.6 324 9.6
2003-05-05 07:07:28 51°14.44 2°54.97 334 11.7 324 9.5
2003-05-05 07:07:34 51°14.46 2°54.95 334.1 11.8 324 9.4
2003-05-05 07:07:38 51°14.47 2°54.94 334.5 11.9 324 9.3
2003-05-05 07:07:42 51°14.48 2°54.92 334 11.9 322 9.2
2003-05-05 07:07:48 51°14.5 2°54.9 332.6 12.1 322 9.2
2003-05-05 07:07:54 51°14.51 2°54.88 332.4 12.1 322 9.2
2003-05-05 07:07:58 51°14.52 2°54.87 333.8 12.1 325 9.1
2003-05-05 07:08:02 51°14.53 2°54.86 337.8 12 328 9.1
2003-05-05 07:08:08 51°14.55 2°54.84 340.8 12 331 9.1
2003-05-05 07:08:14 51°14.57 2°54.83 341.8 12.1 330 9.2
2003-05-05 07:08:18 51°14.58 2°54.82 341.8 12 331 9.1
2003-05-05 07:08:22 51°14.59 2°54.81 341 12.2 329 9
2003-05-05 07:08:28 51°14.61 2°54.79 340.7 12.1 330 9
2003-05-05 07:08:34 51°14.63 2°54.77 340.6 12.2 330 8.8
2003-05-05 07:08:38 51°14.64 2°54.76 340.7 12.1 330 8.8
2003-05-05 07:08:42 51°14.65 2°54.75 341.1 12.1 331 8.8
2003-05-05 07:08:48 51°14.67 2°54.74 341.7 12 330 8.8
2003-05-05 07:08:54 51°14.68 2°54.72 342.1 12.2 332 8.7
2003-05-05 07:08:58 51°14.7 2°54.71 341.1 12.1 330 8.7
2003-05-05 07:09:02 51°14.71 2°54.7 340.7 12.2 331 8.8
2003-05-05 07:09:08 51°14.73 2°54.68 340.5 12.1 330 8.8
2003-05-05 07:09:14 51°14.74 2°54.67 340.1 12.2 330 8.7
2003-05-05 07:09:18 51°14.75 2°54.66 339.8 12.3 329 8.7
2003-05-05 07:09:22 51°14.77 2°54.65 339.6 12.2 330 8.7
2003-05-05 07:09:28 51°14.78 2°54.63 340.1 12.2 330 8.6
2003-05-05 07:09:34 51°14.8 2°54.61 340.4 12.2 331 8.6
2003-05-05 07:09:38 51°14.81 2°54.6 341.1 12.2 331 8.6
2003-05-05 07:09:42 51°14.83 2°54.59 341.5 12.3 332 8.6
2003-05-05 07:09:48 51°14.84 2°54.58 341.7 12.2 332 8.6
2003-05-05 07:09:54 51°14.86 2°54.56 341.7 12.3 332 8.6
2003-05-05 07:09:58 51°14.87 2°54.55 341.6 12.3 332 8.6
2003-05-05 07:10:02 51°14.89 2°54.54 341.2 12.2 331 8.6
2003-05-05 07:10:08 51°14.9 2°54.53 340.7 12.3 332 8.6
2003-05-05 07:10:14 51°14.92 2°54.51 340.3 12.2 331 8.5
2003-05-05 07:10:18 51°14.93 2°54.5 340 12.2 331 8.4
2003-05-05 07:10:22 51°14.94 2°54.49 339.9 12.3 331 8.2
2003-05-05 07:10:28 51°14.96 2°54.47 340 12.3 331 8.1
2003-05-05 07:10:34 51°14.98 2°54.46 340.4 12.1 331 8.1
2003-05-05 07:10:38 51°14.99 2°54.45 340.7 12.1 332 8.1
2003-05-05 07:10:42 51°15 2°54.44 341 12.1 332 8
2003-05-05 07:10:48 51°15.02 2°54.42 341.3 12.1 332 8
2003-05-05 07:10:54 51°15.04 2°54.41 341.3 12.1 332 8
2003-05-05 07:10:58 51°15.05 2°54.4 341.1 12.2 331 8
2003-05-05 07:11:02 51°15.06 2°54.39 340.8 12.2 331 8.1
2003-05-05 07:11:08 51°15.08 2°54.37 340.4 12.3 331 8.1
2003-05-05 07:11:14 51°15.1 2°54.36 340.2 12.4 331 8.1
2003-05-05 07:11:18 51°15.11 2°54.35 339.9 12.4 330 8
2003-05-05 07:11:22 51°15.12 2°54.33 339.9 12.5 331 8.1
2003-05-05 07:11:28 51°15.14 2°54.32 340 12.5 331 8.2
2003-05-05 07:11:34 51°15.16 2°54.3 340.4 12.6 332 8.1
2003-05-05 07:11:38 51°15.17 2°54.29 340.8 12.6 331 8.3
2003-05-05 07:11:42 51°15.18 2°54.28 341.6 12.5 333 8.3
2003-05-05 07:11:48 51°15.2 2°54.27 342.1 12.6 333 8.4
2003-05-05 07:11:54 51°15.22 2°54.25 342.6 12.7 334 8.4
2003-05-05 07:11:58 51°15.23 2°54.24 343 12.7 334 8.5
2003-05-05 07:12:02 51°15.25 2°54.23 343 12.7 334 8.5
2003-05-05 07:12:08 51°15.27 2°54.22 342.8 12.8 333 8.6
2003-05-05 07:12:14 51°15.28 2°54.2 342 12.8 332 8.7
2003-05-05 07:12:18 51°15.3 2°54.19 341.2 12.7 332 8.7
2003-05-05 07:12:22 51°15.31 2°54.18 340.4 12.8 331 8.8
2003-05-05 07:12:28 51°15.33 2°54.16 340 12.8 331 8.8
2003-05-05 07:12:34 51°15.35 2°54.15 339.7 12.9 330 8.8
2003-05-05 07:12:38 51°15.36 2°54.14 339.6 12.9 330 9
2003-05-05 07:12:42 51°15.37 2°54.12 339.6 12.7 330 9.1
2003-05-05 07:12:48 51°15.39 2°54.11 339.6 12.8 330 9.1
2003-05-05 07:12:54 51°15.41 2°54.09 339.8 12.9 330 9.1
2003-05-05 07:12:58 51°15.42 2°54.08 339.7 13 330 9.3
2003-05-05 07:13:02 51°15.43 2°54.07 340 12.9 330 9.3
2003-05-05 07:13:08 51°15.45 2°54.05 340.4 12.9 331 9.4
2003-05-05 07:13:14 51°15.47 2°54.03 340.9 12.9 331 9.4
2003-05-05 07:13:18 51°15.48 2°54.02 341.3 12.8 332 9.6
2003-05-05 07:13:22 51°15.5 2°54.01 341.5 12.8 332 9.6
2003-05-05 07:13:28 51°15.52 2°54 341.5 12.8 331 9.6
2003-05-05 07:13:34 51°15.53 2°53.98 341.4 12.8 331 9.6
2003-05-05 07:13:38 51°15.55 2°53.97 341 12.8 330 9.7
2003-05-05 07:13:42 51°15.56 2°53.96 340.4 12.9 330 9.7
2003-05-05 07:13:48 51°15.58 2°53.94 340.3 12.9 330 9.9
2003-05-05 07:13:54 51°15.6 2°53.92 340.3 12.8 330 10
2003-05-05 07:13:58 51°15.61 2°53.91 340.6 12.7 331 10
2003-05-05 07:14:02 51°15.62 2°53.9 341.3 12.8 331 10.1
2003-05-05 07:14:08 51°15.64 2°53.89 341.5 12.8 332 10.1
2003-05-05 07:14:14 51°15.66 2°53.87 341.6 12.9 331 10.2
2003-05-05 07:14:18 51°15.67 2°53.86 341.6 12.9 331 10.2
2003-05-05 07:14:22 51°15.68 2°53.85 341.5 12.8 331 10.3
2003-05-05 07:14:28 51°15.7 2°53.83 341.1 12.8 331 10.3
2003-05-05 07:14:34 51°15.72 2°53.81 341 12.8 330 10.4
2003-05-05 07:14:38 51°15.73 2°53.8 340.9 12.8 331 10.5
2003-05-05 07:14:42 51°15.74 2°53.79 340.9 12.8 331 10.6
2003-05-05 07:14:48 51°15.76 2°53.77 341.1 12.7 331 10.6
2003-05-05 07:14:54 51°15.78 2°53.76 341.3 12.8 331 10.6
2003-05-05 07:14:58 51°15.79 2°53.75 341.6 12.8 332 10.7
2003-05-05 07:15:02 51°15.81 2°53.74 341.4 12.7 331 10.8
2003-05-05 07:15:08 51°15.83 2°53.72 341 12.8 331 10.8
2003-05-05 07:15:14 51°15.84 2°53.7 340.6 12.9 331 10.8
2003-05-05 07:15:18 51°15.86 2°53.69 340.5 12.9 330 10.9
2003-05-05 07:15:22 51°15.87 2°53.68 340.7 13.1 331 10.9
2003-05-05 07:15:28 51°15.89 2°53.66 341.2 13.1 331 10.9
2003-05-05 07:15:34 51°15.91 2°53.65 341.5 13 331 11
2003-05-05 07:15:38 51°15.92 2°53.64 341.6 13.2 331 11
2003-05-05 07:15:42 51°15.93 2°53.62 341.6 13.2 331 11.1
2003-05-05 07:15:48 51°15.95 2°53.61 341.3 13.3 331 11.1
2003-05-05 07:15:54 51°15.97 2°53.59 340.9 13.3 330 11.1
2003-05-05 07:15:58 51°15.98 2°53.58 340.7 13.4 331 11.1
2003-05-05 07:16:02 51°16 2°53.57 340.6 13.3 331 11.1
2003-05-05 07:16:08 51°16.02 2°53.55 340.9 13.3 331 11.2
2003-05-05 07:16:14 51°16.04 2°53.53 341.3 13.4 331 11.2
2003-05-05 07:16:18 51°16.05 2°53.52 341.8 13.3 332 11.2
2003-05-05 07:16:22 51°16.06 2°53.51 341.9 13.3 332 11.2
2003-05-05 07:16:28 51°16.08 2°53.49 342.2 13.3 333 11.3
2003-05-05 07:16:34 51°16.1 2°53.48 342.3 13.4 332 11.2
2003-05-05 07:16:38 51°16.11 2°53.47 341.9 13.3 332 11.2
2003-05-05 07:16:42 51°16.13 2°53.45 341.1 13.4 331 11.3
2003-05-05 07:16:48 51°16.15 2°53.44 340.6 13.3 330 11.3
2003-05-05 07:16:54 51°16.17 2°53.42 340.4 13.3 331 11.2
2003-05-05 07:16:58 51°16.18 2°53.41 340.3 13.3 330 11.3
2003-05-05 07:17:02 51°16.19 2°53.4 340.3 13.2 330 11.4
2003-05-05 07:17:08 51°16.21 2°53.38 340.4 13.2 331 11.5
2003-05-05 07:17:14 51°16.23 2°53.36 340.7 13.1 331 11.5
2003-05-05 07:17:18 51°16.24 2°53.35 341 13.1 332 11.5
2003-05-05 07:17:22 51°16.26 2°53.34 341.3 13.1 332 11.6
2003-05-05 07:17:28 51°16.28 2°53.32 341.7 13.1 332 11.5
2003-05-05 07:17:34 51°16.29 2°53.31 342 13.1 332 11.6
2003-05-05 07:17:38 51°16.31 2°53.3 342.2 13.2 333 11.6
2003-05-05 07:17:42 51°16.32 2°53.29 342.1 13.2 332 11.6
2003-05-05 07:17:48 51°16.34 2°53.27 341.5 13.2 332 11.6
2003-05-05 07:17:54 51°16.36 2°53.25 341 13.3 331 11.6
2003-05-05 07:17:58 51°16.37 2°53.24 341 13.4 332 11.6
2003-05-05 07:18:02 51°16.39 2°53.23 341 13.4 331 11.6
2003-05-05 07:18:08 51°16.41 2°53.21 341 13.5 332 11.6
2003-05-05 07:18:14 51°16.43 2°53.2 340.7 13.4 332 11.5
2003-05-05 07:18:18 51°16.44 2°53.18 340.9 13.5 332 11.5
2003-05-05 07:18:22 51°16.45 2°53.17 341.1 13.4 332 11.5
2003-05-05 07:18:28 51°16.47 2°53.16 341.3 13.5 333 11.5
2003-05-05 07:18:34 51°16.49 2°53.14 341.4 13.5 332 11.4
2003-05-05 07:18:38 51°16.51 2°53.13 341.4 13.5 332 11.3
2003-05-05 07:18:42 51°16.52 2°53.12 341.3 13.5 332 11.3
2003-05-05 07:18:48 51°16.54 2°53.1 341.1 13.5 332 11.2
2003-05-05 07:18:54 51°16.56 2°53.08 340.9 13.5 332 11.1
2003-05-05 07:18:58 51°16.57 2°53.07 340.6 13.4 331 11.1
2003-05-05 07:19:02 51°16.58 2°53.06 340.5 13.4 331 11.1
2003-05-05 07:19:08 51°16.6 2°53.04 340.6 13.4 332 11
2003-05-05 07:19:14 51°16.62 2°53.03 341.1 13.4 332 10.9
2003-05-05 07:19:18 51°16.64 2°53.01 341.3 13.4 332 10.8
2003-05-05 07:19:22 51°16.65 2°53 341.4 13.5 332 10.7
2003-05-05 07:19:28 51°16.67 2°52.99 341.4 13.5 332 10.7
2003-05-05 07:19:34 51°16.69 2°52.97 341.4 13.4 332 10.6
2003-05-05 07:19:38 51°16.7 2°52.96 341.3 13.4 332 10.5
2003-05-05 07:19:42 51°16.72 2°52.95 341.3 13.4 332 10.3
2003-05-05 07:19:48 51°16.74 2°52.93 341.6 13.4 332 10.2
2003-05-05 07:19:54 51°16.76 2°52.91 341.8 13.5 332 9.9
2003-05-05 07:19:58 51°16.77 2°52.9 341.9 13.4 333 9.7
2003-05-05 07:20:02 51°16.78 2°52.89 341.9 13.4 333 9
2003-05-05 07:20:08 51°16.8 2°52.88 341.9 13.2 333 8.7
2003-05-05 07:20:14 51°16.82 2°52.86 341.7 13.2 333 8.8
2003-05-05 07:20:18 51°16.83 2°52.85 341.4 13 333 8.7
2003-05-05 07:20:22 51°16.85 2°52.84 340.7 13.1 332 8.6
2003-05-05 07:20:28 51°16.87 2°52.82 340.3 13.1 331 8.5
2003-05-05 07:20:34 51°16.89 2°52.81 339.9 13.3 331 8.6
2003-05-05 07:20:38 51°16.9 2°52.79 339.3 13.4 330 8.6
2003-05-05 07:20:42 51°16.91 2°52.78 339 13.3 331 8.7
2003-05-05 07:20:48 51°16.93 2°52.77 338.9 13.4 330 8.9
2003-05-05 07:20:54 51°16.95 2°52.75 338.9 13.4 331 8.8
2003-05-05 07:20:58 51°16.96 2°52.74 339.5 13.4 331 8.9
2003-05-05 07:21:02 51°16.98 2°52.73 340.1 13.5 332 9.2
2003-05-05 07:21:08 51°17 2°52.71 340.7 13.5 333 9.3
2003-05-05 07:21:14 51°17.02 2°52.69 341.4 13.6 333 9.5
2003-05-05 07:21:18 51°17.03 2°52.68 341.9 13.6 333 9.6
2003-05-05 07:21:22 51°17.04 2°52.67 342.2 13.7 334 9.4
2003-05-05 07:21:28 51°17.06 2°52.65 342.3 13.7 334 9.1
2003-05-05 07:21:34 51°17.08 2°52.64 342 13.5 333 8.9
2003-05-05 07:21:38 51°17.1 2°52.63 341.6 13.4 333 8.9
2003-05-05 07:21:42 51°17.11 2°52.62 341 13.4 332 8.8
2003-05-05 07:21:48 51°17.13 2°52.6 340.5 13.3 332 9.1
2003-05-05 07:21:54 51°17.15 2°52.58 339.7 13.3 331 9
2003-05-05 07:21:58 51°17.16 2°52.57 339.5 13.5 331 8.9
2003-05-05 07:22:02 51°17.18 2°52.56 339.2 13.6 331 9.1
2003-05-05 07:22:08 51°17.2 2°52.54 339.2 13.6 331 9.1
2003-05-05 07:22:14 51°17.21 2°52.53 339.3 13.5 332 9.2
2003-05-05 07:22:18 51°17.23 2°52.52 339.6 13.5 331 9.3
2003-05-05 07:22:22 51°17.24 2°52.5 339.7 13.5 331 9.4
2003-05-05 07:22:28 51°17.26 2°52.49 339.9 13.6 331 9.4
2003-05-05 07:22:34 51°17.28 2°52.47 340.3 13.5 332 9.5
2003-05-05 07:22:38 51°17.29 2°52.46 340.4 13.6 332 9.6
2003-05-05 07:22:42 51°17.31 2°52.45 340.6 13.6 332 9.6
2003-05-05 07:22:48 51°17.33 2°52.43 340.7 13.6 332 9.6
2003-05-05 07:22:54 51°17.35 2°52.41 340.9 13.7 332 9.6
2003-05-05 07:22:58 51°17.36 2°52.4 343.3 13.6 336 9.9
2003-05-05 07:23:02 51°17.37 2°52.39 346.5 13.5 339 9.7
2003-05-05 07:23:08 51°17.4 2°52.38 349.8 13.4 342 9.5
2003-05-05 07:23:14 51°17.42 2°52.37 352.6 13.3 345 9.6
2003-05-05 07:23:18 51°17.43 2°52.37 354.8 13.3 346 9.8
2003-05-05 07:23:22 51°17.45 2°52.36 356.1 13.3 347 9.8
2003-05-05 07:23:28 51°17.47 2°52.35 357.1 13.3 349 9.7
2003-05-05 07:23:34 51°17.49 2°52.35 357.5 13.3 349 9.8
2003-05-05 07:23:38 51°17.5 2°52.34 357.6 13.3 349 9.7
2003-05-05 07:23:42 51°17.52 2°52.34 357.3 13.3 348 9.8
2003-05-05 07:23:48 51°17.54 2°52.33 357 13.4 348 9.8
2003-05-05 07:23:54 51°17.56 2°52.32 356.5 13.3 348 9.7
2003-05-05 07:23:58 51°17.58 2°52.32 356.2 13.4 347 9.7
2003-05-05 07:24:02 51°17.59 2°52.31 356.2 13.2 347 9.6
2003-05-05 07:24:08 51°17.61 2°52.3 356.3 13.3 347 9.5
2003-05-05 07:24:14 51°17.63 2°52.3 356.5 13.3 348 9.8
2003-05-05 07:24:18 51°17.65 2°52.29 356.6 13.3 348 9.9
2003-05-05 07:24:22 51°17.66 2°52.29 357.8 13.3 349 9.6
2003-05-05 07:24:28 51°17.69 2°52.28 0.6 13.2 353 9.7
2003-05-05 07:24:34 51°17.71 2°52.28 3.4 13.1 356 9.7
2003-05-05 07:24:38 51°17.72 2°52.28 5.9 13.1 358 9.6
2003-05-05 07:24:42 51°17.74 2°52.28 8.1 13.1 1 9.7
2003-05-05 07:24:48 51°17.76 2°52.28 9.4 13.1   9.8
2003-05-05 07:24:54 51°17.78 2°52.28 10.8 13 2 9.9
2003-05-05 07:24:58 51°17.79 2°52.28 11.1 13 2 9.8
2003-05-05 07:25:02 51°17.81 2°52.28 11.1 13.1 3 9.8
2003-05-05 07:25:08 51°17.83 2°52.28 11 13.1 2 9.9
2003-05-05 07:25:14 51°17.85 2°52.28 10.8 13 1 9.8
2003-05-05 07:25:18 51°17.87 2°52.28 10.8 13 3 9.9
2003-05-05 07:25:22 51°17.88 2°52.28 11.3 13 2 9.9
2003-05-05 07:25:28 51°17.9 2°52.29 14.3 12.9 8 9.8
2003-05-05 07:25:34 51°17.92 2°52.29 18.1 12.8 11 9.8
2003-05-05 07:25:38 51°17.94 2°52.3 21.8 12.9 14 9.9
2003-05-05 07:25:42 51°17.95 2°52.3 25 12.8 18 9.9
2003-05-05 07:25:48 51°17.97 2°52.31 27.3 12.7 19 9.9
2003-05-05 07:25:54 51°17.99 2°52.33 29 12.8 21 9.9
2003-05-05 07:25:58 51°18 2°52.33 29.6 12.8 22 10
2003-05-05 07:26:02 51°18.02 2°52.34 31 12.7 24 10
2003-05-05 07:26:08 51°18.04 2°52.36 33.5 12.7 26 10
2003-05-05 07:26:14 51°18.05 2°52.37 36 12.8 29 10
2003-05-05 07:26:18 51°18.07 2°52.39 38.2 12.7 31 10
2003-05-05 07:26:22 51°18.08 2°52.4 39.6 12.7 33 10
2003-05-05 07:26:28 51°18.1 2°52.42 40.6 12.6 33 10.1
2003-05-05 07:26:34 51°18.11 2°52.43 41.3 12.6 35 10.1
2003-05-05 07:26:38 51°18.13 2°52.45 41.8 12.6 33 10.1
2003-05-05 07:26:42 51°18.14 2°52.46 42 12.6 34 10.2
2003-05-05 07:26:48 51°18.16 2°52.48 42 12.7 34 10.2
2003-05-05 07:26:54 51°18.17 2°52.5 42.1 12.6 35 10.2
2003-05-05 07:26:58 51°18.18 2°52.51 41.8 12.6 33 10.2
2003-05-05 07:27:02 51°18.2 2°52.52 41.3 12.7 34 10.2
2003-05-05 07:27:08 51°18.21 2°52.54 40.9 12.7 32 10.3
2003-05-05 07:27:14 51°18.23 2°52.56 41.3 12.7 33 10.3
2003-05-05 07:27:18 51°18.24 2°52.57 41.3 12.6 34 10.3
2003-05-05 07:27:22 51°18.25 2°52.58 41.2 12.7 34 10.4
2003-05-05 07:27:28 51°18.27 2°52.6 41 12.7 33 10.4
2003-05-05 07:27:34 51°18.29 2°52.62 42 12.7 36 10.4
2003-05-05 07:27:38 51°18.3 2°52.63 44.3 12.6 38 10.4
2003-05-05 07:27:42 51°18.31 2°52.65 46.4 12.6 39 10.4
2003-05-05 07:27:48 51°18.33 2°52.67 47.8 12.6 42 10.4
2003-05-05 07:27:54 51°18.34 2°52.69 49.4 12.6 43 10.3
2003-05-05 07:27:58 51°18.35 2°52.71 50.1 12.5 43 10.5
2003-05-05 07:28:02 51°18.36 2°52.72 50.2 12.5 43 10.5
2003-05-05 07:28:08 51°18.38 2°52.75 50.1 12.5 43 10.5
2003-05-05 07:28:14 51°18.39 2°52.77 50.2 12.6 44 10.5
2003-05-05 07:28:18 51°18.4 2°52.78 51.1 12.7 45 10.5
2003-05-05 07:28:22 51°18.41 2°52.8 54.4 12.5 50 10.5
2003-05-05 07:28:28 51°18.43 2°52.83 57.8 12.4 52 10.5
2003-05-05 07:28:34 51°18.44 2°52.85 60.4 12.5 55 10.5
2003-05-05 07:28:38 51°18.45 2°52.87 62.8 12.4 57 10.6
2003-05-05 07:28:42 51°18.45 2°52.89 64.8 12.3 60 10.6
2003-05-05 07:28:48 51°18.46 2°52.92 65.6 12.4 60 10.6
2003-05-05 07:28:54 51°18.47 2°52.95 66.2 12.4 61 10.6
2003-05-05 07:28:58 51°18.48 2°52.97 66.7 12.3 62 10.6
2003-05-05 07:29:02 51°18.49 2°52.99 67.4 12.4 62 10.6
2003-05-05 07:29:08 51°18.5 2°53.01 67.6 12.4 62 10.7
2003-05-05 07:29:14 51°18.51 2°53.04 67.3 12.4 61 10.6
2003-05-05 07:29:18 51°18.51 2°53.06 67 12.4 62 10.6
2003-05-05 07:29:22 51°18.52 2°53.08 66.4 12.4 60 10.6
2003-05-05 07:29:28 51°18.53 2°53.11 66.1 12.4 60 10.7
2003-05-05 07:29:34 51°18.54 2°53.14 66.1 12.4 61 10.7
2003-05-05 07:29:38 51°18.55 2°53.16 66.1 12.4 59 10.6
2003-05-05 07:29:42 51°18.55 2°53.18 65.7 12.5 60 10.6
2003-05-05 07:29:48 51°18.56 2°53.21 65.7 12.5 60 10.6
2003-05-05 07:29:54 51°18.57 2°53.23 66.1 12.5 60 10.7
2003-05-05 07:29:58 51°18.58 2°53.25 66.5 12.5 61 10.7
2003-05-05 07:30:02 51°18.59 2°53.27 66.4 12.5 61 10.7
2003-05-05 07:30:08 51°18.6 2°53.3 66.1 12.5 60 10.7
2003-05-05 07:30:14 51°18.61 2°53.33 66 12.5 61 10.7
2003-05-05 07:30:18 51°18.62 2°53.35 65.8 12.5 59 10.7
2003-05-05 07:30:22 51°18.62 2°53.37 65.8 12.5 60 10.7
2003-05-05 07:30:28 51°18.63 2°53.4 65.5 12.5 60 10.7
2003-05-05 07:30:34 51°18.64 2°53.43 65.6 12.4 60 10.7
2003-05-05 07:30:38 51°18.65 2°53.44 66 12.5 60 10.7
2003-05-05 07:30:42 51°18.66 2°53.46 66.5 12.4 61 10.7
2003-05-05 07:30:48 51°18.67 2°53.49 66.3 12.4 60 10.8
2003-05-05 07:30:54 51°18.68 2°53.52 66.1 12.5 60 10.7
2003-05-05 07:30:58 51°18.69 2°53.54 65.4 12.5 59 10.8
2003-05-05 07:31:02 51°18.69 2°53.56 65.5 12.5 60 10.7
2003-05-05 07:31:08 51°18.7 2°53.59 65.7 12.5 60 10.7
2003-05-05 07:31:14 51°18.71 2°53.62 66.2 12.5 61 10.7
2003-05-05 07:31:18 51°18.72 2°53.64 66.3 12.5 60 10.7
2003-05-05 07:31:22 51°18.73 2°53.66 66.7 12.5 60 10.7
2003-05-05 07:31:28 51°18.74 2°53.68 66.7 12.5 61 10.7
2003-05-05 07:31:34 51°18.75 2°53.71 67 12.5 60 10.7
2003-05-05 07:31:38 51°18.75 2°53.73 67 12.5 61 10.7
2003-05-05 07:31:42 51°18.76 2°53.75 66.9 12.4 60 10.7
2003-05-05 07:31:48 51°18.77 2°53.78 66.2 12.5 60 10.7
2003-05-05 07:31:54 51°18.78 2°53.81 65.8 12.5 60 10.7
2003-05-05 07:31:58 51°18.79 2°53.83 65.8 12.5 60 10.7
2003-05-05 07:32:02 51°18.79 2°53.85 66 12.4 60 10.7
2003-05-05 07:32:08 51°18.81 2°53.88 66 12.5 61 10.7
2003-05-05 07:32:14 51°18.82 2°53.91 65.3 12.5 58 10.7
2003-05-05 07:32:18 51°18.82 2°53.92 65.5 12.5 62 10.7
2003-05-05 07:32:22 51°18.83 2°53.94 66.4 12.6 61 10.7
2003-05-05 07:32:28 51°18.84 2°53.97 67 12.7 62 10.7
2003-05-05 07:32:34 51°18.85 2°54 67.7 12.6 63 10.7
2003-05-05 07:32:38 51°18.86 2°54.02 67.7 12.7 62 10.8
2003-05-05 07:32:42 51°18.86 2°54.04 67.8 12.7 62 10.7
2003-05-05 07:32:48 51°18.87 2°54.07 68 12.7 63 10.8
2003-05-05 07:32:54 51°18.88 2°54.1 67.9 12.8 62 10.7
2003-05-05 07:32:58 51°18.89 2°54.12 67.3 12.8 61 10.6
2003-05-05 07:33:02 51°18.9 2°54.14 67 12.8 61 10.7
2003-05-05 07:33:08 51°18.91 2°54.17 66.8 12.8 61 10.7
2003-05-05 07:33:14 51°18.92 2°54.2 67.6 12.8 63 10.7
2003-05-05 07:33:18 51°18.92 2°54.22 67.2 12.9 60 10.7
2003-05-05 07:33:22 51°18.93 2°54.24 67.1 12.8 61 10.7
2003-05-05 07:33:28 51°18.94 2°54.27 67.5 12.8 62 10.7
2003-05-05 07:33:34 51°18.95 2°54.3 67.7 12.9 62 10.7
2003-05-05 07:33:38 51°18.96 2°54.32 67.5 12.9 61 10.7
2003-05-05 07:33:42 51°18.96 2°54.34 67.5 12.8 61 10.7
2003-05-05 07:33:48 51°18.97 2°54.37 67.2 12.9 61 10.7
2003-05-05 07:33:54 51°18.98 2°54.4 67.1 12.9 62 10.7
2003-05-05 07:33:58 51°18.99 2°54.42 68.1 12.9 63 10.7
2003-05-05 07:34:02 51°19 2°54.44 68.1 12.8 62 10.7
2003-05-05 07:34:08 51°19.01 2°54.47 68.2 12.8 63 10.7
2003-05-05 07:34:14 51°19.02 2°54.5 68.1 12.9 62 10.7
2003-05-05 07:34:18 51°19.02 2°54.52 68 12.9 63 10.7
2003-05-05 07:34:22 51°19.03 2°54.54 67.5 12.9 62 10.7
2003-05-05 07:34:28 51°19.04 2°54.57 67.4 12.9 62 10.7
2003-05-05 07:34:34 51°19.05 2°54.6 67.1 12.9 61 10.7
2003-05-05 07:34:38 51°19.06 2°54.62 67 12.8 62 10.7
2003-05-05 07:34:42 51°19.07 2°54.64 67.3 12.8 62 10.7
2003-05-05 07:34:48 51°19.08 2°54.67 67.2 12.9 62 10.7
2003-05-05 07:34:54 51°19.09 2°54.7 67 12.8 62 10.7
2003-05-05 07:34:58 51°19.09 2°54.72 67.3 12.8 61 10.7
2003-05-05 07:35:02 51°19.1 2°54.74 67.4 12.9 62 10.7
2003-05-05 07:35:08 51°19.11 2°54.77 67.4 12.9 62 10.7
2003-05-05 07:35:14 51°19.12 2°54.8 67.4 12.8 62 10.7
2003-05-05 07:35:18 51°19.13 2°54.82 67.3 12.8 61 10.7
2003-05-05 07:35:22 51°19.13 2°54.84 67.8 12.9 62 10.7
2003-05-05 07:35:28 51°19.14 2°54.87 67.2 12.9 60 10.7
2003-05-05 07:35:34 51°19.15 2°54.91 67.5 12.8 61 10.7
2003-05-05 07:35:38 51°19.16 2°54.92 67.3 12.8 61 10.7
2003-05-05 07:35:42 51°19.17 2°54.94 67.6 12.9 61 10.7
2003-05-05 07:35:48 51°19.18 2°54.98 67.8 12.9 63 10.7
2003-05-05 07:35:54 51°19.19 2°55.01 67.2 13 60 10.7
2003-05-05 07:35:58 51°19.2 2°55.03 66.8 12.9 61 10.8
2003-05-05 07:36:02 51°19.2 2°55.05 67.5 12.9 61 10.7
2003-05-05 07:36:08 51°19.21 2°55.08 67.4 12.9 62 10.7
2003-05-05 07:36:14 51°19.22 2°55.11 67.4 12.8 62 10.8
2003-05-05 07:36:18 51°19.23 2°55.13 67.5 12.8 61 10.8
2003-05-05 07:36:22 51°19.24 2°55.15 67.2 12.8 62 10.8
2003-05-05 07:36:28 51°19.25 2°55.18 67.4 12.9 61 10.8
2003-05-05 07:36:34 51°19.26 2°55.21 67.7 12.9 63 10.8
2003-05-05 07:36:38 51°19.26 2°55.23 67.5 12.9 60 10.8
2003-05-05 07:36:42 51°19.27 2°55.25 67.5 12.8 62 10.8
2003-05-05 07:36:48 51°19.28 2°55.28 67.5 12.9 61 10.8
2003-05-05 07:36:54 51°19.29 2°55.31 67.3 12.9 62 10.8
2003-05-05 07:36:58 51°19.3 2°55.33 67.4 12.9 61 10.8
2003-05-05 07:37:02 51°19.3 2°55.35 67.4 12.9 60 10.8
2003-05-05 07:37:08 51°19.32 2°55.38 67.3 12.9 62 10.8
2003-05-05 07:37:14 51°19.33 2°55.41 66.7 12.9 60 10.8
2003-05-05 07:37:18 51°19.33 2°55.43 67.1 12.9 62 10.7
2003-05-05 07:37:22 51°19.34 2°55.45 67.3 12.9 61 10.7
2003-05-05 07:37:28 51°19.35 2°55.48 67.3 12.9 62 10.8
2003-05-05 07:37:34 51°19.36 2°55.51 67.7 12.8 62 10.8
2003-05-05 07:37:38 51°19.37 2°55.53 67.5 12.8 60 10.8
2003-05-05 07:37:42 51°19.37 2°55.55 66.8 12.9 60 10.8
2003-05-05 07:37:48 51°19.38 2°55.57 66.9 12.8 61 10.9
2003-05-05 07:37:54 51°19.39 2°55.6 67.4 12.8 60 10.8
2003-05-05 07:37:58 51°19.4 2°55.62 67.5 12.8 62 10.8
2003-05-05 07:38:04 51°19.41 2°55.66 68.2 12.8 61 10.8
2003-05-05 07:38:08 51°19.42 2°55.68 68.6 12.8 64 10.8
2003-05-05 07:38:14 51°19.43 2°55.71 68.7 12.8 62 10.8
2003-05-05 07:38:18 51°19.43 2°55.73 68.3 12.8 63 10.8
2003-05-05 07:38:22 51°19.44 2°55.75 68 12.8 62 10.8
2003-05-05 07:38:28 51°19.45 2°55.78 67.7 12.8 61 10.8
2003-05-05 07:38:34 51°19.46 2°55.81 67.7 12.9 62 10.8
2003-05-05 07:38:38 51°19.47 2°55.83 67.7 12.8 61 10.8
2003-05-05 07:38:42 51°19.48 2°55.85 68.2 12.9 62 10.8
2003-05-05 07:38:48 51°19.49 2°55.88 68.4 12.8 62 10.8
2003-05-05 07:38:54 51°19.5 2°55.91 68.2 12.8 62 10.8
2003-05-05 07:38:58 51°19.5 2°55.93 68.2 12.8 62 10.8
2003-05-05 07:39:02 51°19.51 2°55.95 67.9 12.9 61 10.7
2003-05-05 07:39:08 51°19.52 2°55.98 67 12.8 61 10.7
2003-05-05 07:39:14 51°19.53 2°56 67.1 12.8 62 10.7
2003-05-05 07:39:18 51°19.54 2°56.02 67.9 12.8 63 10.7
2003-05-05 07:39:22 51°19.54 2°56.04 69.4 12.8 66 10.7
2003-05-05 07:39:28 51°19.55 2°56.08 71.7 12.8 65 10.7
2003-05-05 07:39:34 51°19.56 2°56.11 74 12.7 70 10.7
2003-05-05 07:39:38 51°19.56 2°56.13 76.2 12.7 71 10.7
2003-05-05 07:39:42 51°19.57 2°56.15 77.3 12.7 72 10.7
2003-05-05 07:39:48 51°19.57 2°56.18 77.8 12.6 73 10.7
2003-05-05 07:39:54 51°19.58 2°56.21 78.6 12.6 73 10.7
2003-05-05 07:39:58 51°19.58 2°56.24 78.6 12.7 73 10.7
2003-05-05 07:40:02 51°19.59 2°56.26 78.3 12.7 73 10.7
2003-05-05 07:40:08 51°19.59 2°56.29 77.7 12.6 72 10.7
2003-05-05 07:40:14 51°19.6 2°56.32 77.6 12.6 71 10.7
2003-05-05 07:40:18 51°19.6 2°56.34 77.3 12.6 72 10.6
2003-05-05 07:40:22 51°19.61 2°56.36 77.4 12.6 73 10.7
2003-05-05 07:40:28 51°19.62 2°56.4 77.8 12.6 73 10.6
2003-05-05 07:40:34 51°19.62 2°56.43 78 12.7 72 10.6
2003-05-05 07:40:38 51°19.63 2°56.45 78.2 12.6 74 10.6
2003-05-05 07:40:42 51°19.63 2°56.47 78.6 12.6 74 10.5
2003-05-05 07:40:48 51°19.64 2°56.5 78.8 12.7 74 10.5
2003-05-05 07:40:54 51°19.64 2°56.54 78.3 12.7 74 10.6
2003-05-05 07:40:58 51°19.65 2°56.56 78 12.6 72 10.5
2003-05-05 07:41:02 51°19.65 2°56.58 76.6 12.6 71 10.5
2003-05-05 07:41:08 51°19.66 2°56.61 75.3 12.7 70 10.5
2003-05-05 07:41:14 51°19.67 2°56.64 74 12.7 67 10.5
2003-05-05 07:41:18 51°19.67 2°56.66 73.7 12.6 68 10.5
2003-05-05 07:41:22 51°19.68 2°56.68 73.3 12.6 68 10.5
2003-05-05 07:41:28 51°19.68 2°56.71 72.8 12.7 66 10.4
2003-05-05 07:41:34 51°19.69 2°56.74 72.9 12.7 68 10.4
2003-05-05 07:41:38 51°19.7 2°56.77 73.7 12.7 68 10.4
2003-05-05 07:41:42 51°19.7 2°56.79 73.9 12.7 68 10.4
2003-05-05 07:41:48 51°19.71 2°56.82 73.7 12.7 68 10.3
2003-05-05 07:41:54 51°19.72 2°56.85 72.9 12.7 66 10.4
2003-05-05 07:41:58 51°19.72 2°56.87 72.6 12.7 67 10.4
2003-05-05 07:42:02 51°19.73 2°56.89 72.7 12.7 66 10.3
2003-05-05 07:42:08 51°19.74 2°56.92 73.3 12.6 68 10.3
2003-05-05 07:42:14 51°19.75 2°56.95 74.2 12.6 69 10.3
2003-05-05 07:42:18 51°19.75 2°56.97 74.7 12.6 69 10.4
2003-05-05 07:42:22 51°19.76 2°56.99 74.7 12.6 69 10.3
2003-05-05 07:42:28 51°19.76 2°57.03 75.1 12.6 71 10.3
2003-05-05 07:42:34 51°19.77 2°57.06 75.5 12.5 71 10.3
2003-05-05 07:42:38 51°19.77 2°57.08 75.7 12.5 70 10.3
2003-05-05 07:42:42 51°19.78 2°57.1 75.6 12.6 69 10.3
2003-05-05 07:42:48 51°19.79 2°57.13 75.4 12.6 70 10.3
2003-05-05 07:42:54 51°19.79 2°57.16 74.8 12.5 69 10.3
2003-05-05 07:42:58 51°19.8 2°57.18 74.8 12.5 70 10.3
2003-05-05 07:43:02 51°19.8 2°57.2 75.1 12.6 70 10.3
2003-05-05 07:43:08 51°19.81 2°57.23 74.9 12.6 69 10.3
2003-05-05 07:43:14 51°19.82 2°57.26 74 12.6 68 10.3
2003-05-05 07:43:18 51°19.82 2°57.29 73.6 12.5 67 10.2
2003-05-05 07:43:22 51°19.83 2°57.31 73.3 12.5 67 10.2
2003-05-05 07:43:28 51°19.84 2°57.34 73.2 12.6 67 10.2
2003-05-05 07:43:34 51°19.84 2°57.37 73.3 12.5 67 10.3
2003-05-05 07:43:38 51°19.85 2°57.39 73.4 12.5 68 10.2
2003-05-05 07:43:42 51°19.86 2°57.41 74.5 12.5 69 10.2
2003-05-05 07:43:48 51°19.86 2°57.44 75.2 12.5 70 10.2
2003-05-05 07:43:54 51°19.87 2°57.47 75.5 12.5 70 10.2
2003-05-05 07:43:58 51°19.87 2°57.49 75.8 12.5 71 10.2
2003-05-05 07:44:02 51°19.88 2°57.51 75.7 12.5 70 10.2
2003-05-05 07:44:08 51°19.89 2°57.54 75.4 12.5 69 10.2
2003-05-05 07:44:14 51°19.89 2°57.58 75.3 12.5 70 10.2
2003-05-05 07:44:18 51°19.9 2°57.6 74.6 12.5 68 10.2
2003-05-05 07:44:22 51°19.9 2°57.62 74.1 12.5 68 10.1
2003-05-05 07:44:28 51°19.91 2°57.65 74.7 12.4 70 10.1
2003-05-05 07:44:34 51°19.92 2°57.68 74.8 12.5 70 10.1
2003-05-05 07:44:38 51°19.92 2°57.7 75 12.6 69 10.1
2003-05-05 07:44:42 51°19.93 2°57.72 75.4 12.5 71 10.1
2003-05-05 07:44:48 51°19.93 2°57.75 75.6 12.4 70 10.1
2003-05-05 07:44:54 51°19.94 2°57.78 75.7 12.4 70 10
2003-05-05 07:44:58 51°19.95 2°57.8 75.1 12.5 70 10
2003-05-05 07:45:02 51°19.95 2°57.82 74 12.6 69 10
2003-05-05 07:45:08 51°19.96 2°57.85 73.7 12.5 67 10
2003-05-05 07:45:14 51°19.97 2°57.89 73.9 12.4 67 10
2003-05-05 07:45:18 51°19.97 2°57.91 73.6 12.5 68 10
2003-05-05 07:45:22 51°19.98 2°57.93 73.1 12.5 67 10
2003-05-05 07:45:28 51°19.98 2°57.96 73.3 12.5 69 10
2003-05-05 07:45:34 51°19.99 2°57.99 73.5 12.5 68 10
2003-05-05 07:45:38 51°20 2°58.01 73.5 12.5 67 10
2003-05-05 07:45:42 51°20 2°58.03 73.8 12.5 69 9.9
2003-05-05 07:45:48 51°20.01 2°58.06 74 12.5 69 10
2003-05-05 07:45:54 51°20.02 2°58.09 74.4 12.3 69 10
2003-05-05 07:45:58 51°20.02 2°58.11 74.7 12.4 70 10
2003-05-05 07:46:02 51°20.03 2°58.13 74.9 12.4 70 9.9
2003-05-05 07:46:08 51°20.04 2°58.16 74.9 12.5 69 10
2003-05-05 07:46:14 51°20.04 2°58.19 74.6 12.4 69 10
2003-05-05 07:46:18 51°20.05 2°58.21 74.4 12.3 69 10
2003-05-05 07:46:22 51°20.05 2°58.23 74.7 12.4 69 9.9
2003-05-05 07:46:28 51°20.06 2°58.27 74.7 12.4 69 9.9
2003-05-05 07:46:34 51°20.07 2°58.3 74.3 12.3 68 9.9
2003-05-05 07:46:38 51°20.07 2°58.32 74.2 12.3 69 9.8
2003-05-05 07:46:44 51°20.08 2°58.35 73.8 12.3 68 9.9
2003-05-05 07:46:48 51°20.08 2°58.37 73.6 12.4 68 9.9
2003-05-05 07:46:54 51°20.09 2°58.4 73.7 12.4 68 9.9
2003-05-05 07:46:58 51°20.1 2°58.42 74.3 12.3 70 9.9
2003-05-05 07:47:02 51°20.1 2°58.44 74.7 12.3 69 9.9
2003-05-05 07:47:08 51°20.11 2°58.47 74.7 12.3 69 9.8
2003-05-05 07:47:14 51°20.12 2°58.5 73.9 12.4 67 9.8
2003-05-05 07:47:18 51°20.12 2°58.52 73.7 12.3 68 9.8
2003-05-05 07:47:22 51°20.13 2°58.54 73.3 12.3 69 9.8
2003-05-05 07:47:28 51°20.13 2°58.57 73.4 12.3 67 9.8
2003-05-05 07:47:34 51°20.14 2°58.6 73.9 12.4 68 9.7
2003-05-05 07:47:38 51°20.15 2°58.62 74 12.4 69 9.7
2003-05-05 07:47:42 51°20.15 2°58.64 74.8 12.3 69 9.7
2003-05-05 07:47:48 51°20.16 2°58.67 75 12.3 70 9.8
2003-05-05 07:47:54 51°20.17 2°58.7 74.9 12.3 69 9.7
2003-05-05 07:47:58 51°20.17 2°58.72 74.4 12.3 68 9.8
2003-05-05 07:48:02 51°20.18 2°58.74 73.4 12.4 68 9.7
2003-05-05 07:48:08 51°20.18 2°58.77 73.2 12.4 66 9.7
2003-05-05 07:48:14 51°20.19 2°58.8 72.6 12.4 67 9.7
2003-05-05 07:48:18 51°20.2 2°58.82 72.2 12.4 65 9.7
2003-05-05 07:48:22 51°20.2 2°58.84 72.4 12.3 67 9.7
2003-05-05 07:48:28 51°20.21 2°58.87 72.6 12.3 66 9.7
2003-05-05 07:48:34 51°20.22 2°58.9 73.5 12.3 67 9.7
2003-05-05 07:48:38 51°20.22 2°58.92 74.6 12.3 70 9.7
2003-05-05 07:48:42 51°20.23 2°58.94 75 12.3 69 9.7
2003-05-05 07:48:48 51°20.24 2°58.98 75.4 12.3 70 9.7
2003-05-05 07:48:54 51°20.24 2°59.01 75.8 12.3 69 9.7
2003-05-05 07:48:58 51°20.25 2°59.03 75.3 12.3 69 9.7
2003-05-05 07:49:02 51°20.25 2°59.05 74.5 12.2 69 9.6
2003-05-05 07:49:08 51°20.26 2°59.08 74.5 12.3 69 9.6
2003-05-05 07:49:14 51°20.27 2°59.11 74.1 12.3 67 9.6
2003-05-05 07:49:18 51°20.27 2°59.13 73.9 12.3 69 9.6
2003-05-05 07:49:22 51°20.28 2°59.15 73.8 12.2 68 9.7
2003-05-05 07:49:28 51°20.29 2°59.18 74.1 12.3 67 9.6
2003-05-05 07:49:34 51°20.29 2°59.21 74.3 12.3 69 9.6
2003-05-05 07:49:38 51°20.3 2°59.23 74.9 12.3 69 9.6
2003-05-05 07:49:42 51°20.3 2°59.25 74.7 12.3 69 9.6
2003-05-05 07:49:48 51°20.31 2°59.28 74.4 12.2 68 9.6
2003-05-05 07:49:54 51°20.32 2°59.31 73.8 12.3 67 9.5
2003-05-05 07:49:58 51°20.32 2°59.33 73.2 12.3 66 9.6
2003-05-05 07:50:02 51°20.33 2°59.35 73.3 12.3 68 9.5
2003-05-05 07:50:08 51°20.34 2°59.38 73.7 12.3 67 9.5
2003-05-05 07:50:14 51°20.35 2°59.41 74.4 12.2 68 9.5
2003-05-05 07:50:18 51°20.35 2°59.43 74.6 12.3 68 9.5
2003-05-05 07:50:22 51°20.36 2°59.45 74.7 12.2 69 9.6
2003-05-05 07:50:28 51°20.36 2°59.48 75.7 12.2 70 9.5
2003-05-05 07:50:34 51°20.37 2°59.51 76 12.2 70 9.5
2003-05-05 07:50:38 51°20.37 2°59.53 76.3 12.2 71 9.5
2003-05-05 07:50:42 51°20.38 2°59.55 76.7 12.2 71 9.5
2003-05-05 07:50:48 51°20.38 2°59.58 76.5 12.2 71 9.5
2003-05-05 07:50:54 51°20.39 2°59.61 76.2 12.2 70 9.5
2003-05-05 07:50:58 51°20.4 2°59.63 76.2 12.2 70 9.5
2003-05-05 07:51:02 51°20.4 2°59.65 75.1 12.2 68 9.4
2003-05-05 07:51:08 51°20.41 2°59.68 74.4 12.2 68 9.5
2003-05-05 07:51:14 51°20.42 2°59.71 74 12.1 69 9.5
2003-05-05 07:51:18 51°20.42 2°59.73 74.7 12.2 68 9.4
2003-05-05 07:51:24 51°20.43 2°59.76 75.1 12.1 70 9.5
2003-05-05 07:51:28 51°20.43 2°59.78 75.4 12.1 68 9.4
2003-05-05 07:51:34 51°20.44 2°59.81 75.4 12.2 70 9.4
2003-05-05 07:51:38 51°20.45 2°59.83 75.4 12.1 69 9.4
2003-05-05 07:51:42 51°20.45 2°59.85 75.7 12.1 70 9.4
2003-05-05 07:51:48 51°20.46 2°59.88 75.5 12.2 69 9.4
2003-05-05 07:51:54 51°20.46 2°59.91 74.8 12.2 67 9.4
2003-05-05 07:51:58 51°20.47 2°59.93 73.9 12.1 68 9.4
2003-05-05 07:52:02 51°20.47 2°59.95 74 12.1 68 9.4
2003-05-05 07:52:08 51°20.48 2°59.98 74 12.2 67 9.4
2003-05-05 07:52:14 51°20.49 3°0.01 74.1 12.2 69 9.4
2003-05-05 07:52:18 51°20.49 3°0.03 74.9 12.2 68 9.4
2003-05-05 07:52:22 51°20.5 3°0.05 75.6 12.1 70 9.4
2003-05-05 07:52:28 51°20.51 3°0.08 75.4 12.1 68 9.3
2003-05-05 07:52:34 51°20.51 3°0.11 75.1 12.1 68 9.3
2003-05-05 07:52:38 51°20.52 3°0.13 74.5 12.2 68 9.3
2003-05-05 07:52:42 51°20.52 3°0.15 74 12.2 67 9.3
2003-05-05 07:52:48 51°20.53 3°0.18 73.8 12.2 67 9.3
2003-05-05 07:52:54 51°20.54 3°0.21 73.7 12.2 68 9.3
2003-05-05 07:52:58 51°20.54 3°0.23 74 12.2 67 9.3
2003-05-05 07:53:02 51°20.55 3°0.25 73.9 12.2 67 9.3
2003-05-05 07:53:08 51°20.56 3°0.28 73.6 12.2 67 9.3
2003-05-05 07:53:14 51°20.56 3°0.31 74.1 12.2 68 9.3
2003-05-05 07:53:18 51°20.57 3°0.33 74.6 12.3 69 9.3
2003-05-05 07:53:22 51°20.57 3°0.35 74.7 12.2 68 9.3
2003-05-05 07:53:28 51°20.58 3°0.38 75 12.1 69 9.3
2003-05-05 07:53:34 51°20.59 3°0.41 75.4 12.2 69 9.3
2003-05-05 07:53:38 51°20.59 3°0.43 75.5 12.3 70 9.3
2003-05-05 07:53:42 51°20.6 3°0.45 75.1 12.2 69 9.3
2003-05-05 07:53:48 51°20.61 3°0.49 74.9 12.1 68 9.3
2003-05-05 07:53:54 51°20.61 3°0.52 74.9 12.1 69 9.3
2003-05-05 07:53:58 51°20.62 3°0.54 74.6 12.2 68 9.2
2003-05-05 07:54:02 51°20.62 3°0.56 73.4 12.2 66 9.2
2003-05-05 07:54:08 51°20.63 3°0.58 72.5 12.2 66 9.3
2003-05-05 07:54:14 51°20.64 3°0.61 72.5 12.2 65 9.2
2003-05-05 07:54:18 51°20.65 3°0.63 72.5 12.2 67 9.2
2003-05-05 07:54:22 51°20.65 3°0.65 73 12.2 67 9.2
2003-05-05 07:54:28 51°20.66 3°0.68 74 12.1 69 9.3
2003-05-05 07:54:34 51°20.67 3°0.71 75.6 12.1 71 9.2
2003-05-05 07:54:38 51°20.67 3°0.73 76.9 12.2 72 9.2
2003-05-05 07:54:42 51°20.67 3°0.75 77.3 12.1 73 9.2
2003-05-05 07:54:48 51°20.68 3°0.79 77.5 11.9 72 9.2
2003-05-05 07:54:54 51°20.69 3°0.82 77.9 12 74 9.2
2003-05-05 07:54:58 51°20.69 3°0.84 77.9 12.1 72 9.2
2003-05-05 07:55:02 51°20.69 3°0.86 76.9 12.1 71 9.2
2003-05-05 07:55:08 51°20.7 3°0.89 76.2 12 71 9.3
2003-05-05 07:55:14 51°20.71 3°0.92 76.6 12 71 9.2
2003-05-05 07:55:18 51°20.71 3°0.94 76.5 12.1 70 9.2
2003-05-05 07:55:24 51°20.72 3°0.97 76.4 12.1 71 9.2
2003-05-05 07:55:28 51°20.72 3°0.99 75.9 12 71 9.2
2003-05-05 07:55:34 51°20.73 3°1.02 75.8 12 70 9.3
2003-05-05 07:55:38 51°20.73 3°1.04 75.6 12.1 69 9.2
2003-05-05 07:55:42 51°20.74 3°1.06 75.4 12.1 71 9.1
2003-05-05 07:55:48 51°20.74 3°1.09 75.9 12.1 70 9.2
2003-05-05 07:55:54 51°20.75 3°1.12 77 12 71 9.2
2003-05-05 07:55:58 51°20.75 3°1.14 77.4 12.1 72 9.2
2003-05-05 07:56:02 51°20.76 3°1.16 77.7 12.2 73 9.2
2003-05-05 07:56:08 51°20.76 3°1.19 77.7 12.1 72 9.2
2003-05-05 07:56:14 51°20.77 3°1.22 78 12.1 72 9.2
2003-05-05 07:56:18 51°20.77 3°1.24 77.7 12.1 72 9.2
2003-05-05 07:56:22 51°20.78 3°1.26 77.2 12.1 70 9.2
2003-05-05 07:56:28 51°20.79 3°1.29 76.2 12.1 70 9.2
2003-05-05 07:56:34 51°20.79 3°1.32 76.2 12.1 70 9.2
2003-05-05 07:56:38 51°20.8 3°1.34 75.8 12.1 70 9.2
2003-05-05 07:56:42 51°20.8 3°1.36 75.6 12.1 69 9.2
2003-05-05 07:56:48 51°20.81 3°1.39 75 12.2 68 9.2
2003-05-05 07:56:54 51°20.82 3°1.42 75 12.1 70 9.2
2003-05-05 07:56:58 51°20.82 3°1.44 75.4 12 69 9.2
2003-05-05 07:57:02 51°20.83 3°1.46 76.3 12 70 9.2
2003-05-05 07:57:08 51°20.83 3°1.49 76.7 12.1 71 9.2
2003-05-05 07:57:14 51°20.84 3°1.53 77.2 12.2 70 9.2
2003-05-05 07:57:18 51°20.84 3°1.55 76.8 12.1 71 9.3
2003-05-05 07:57:22 51°20.85 3°1.57 76.8 12 71 9.2
2003-05-05 07:57:28 51°20.86 3°1.6 76.2 12 69 9.3
2003-05-05 07:57:34 51°20.86 3°1.63 76.2 12 70 9.2
2003-05-05 07:57:38 51°20.87 3°1.65 75.8 12.1 70 9.3
2003-05-05 07:57:42 51°20.87 3°1.67 75.3 12.1 68 9.3
2003-05-05 07:57:48 51°20.88 3°1.7 75.4 12 70 9.3
2003-05-05 07:57:54 51°20.89 3°1.73 75.7 12.1 69 9.3
2003-05-05 07:57:58 51°20.89 3°1.75 76 12.1 71 9.3
2003-05-05 07:58:02 51°20.89 3°1.77 76.1 12 71 9.3
2003-05-05 07:58:08 51°20.9 3°1.8 76.3 11.9 70 9.3
2003-05-05 07:58:14 51°20.91 3°1.83 76.9 12 72 9.3
2003-05-05 07:58:18 51°20.91 3°1.85 77.2 12.1 71 9.3
2003-05-05 07:58:22 51°20.92 3°1.87 77.8 12 73 9.4
2003-05-05 07:58:28 51°20.92 3°1.9 78.2 11.9 72 9.4
2003-05-05 07:58:34 51°20.93 3°1.93 78 11.9 72 9.4
2003-05-05 07:58:38 51°20.93 3°1.95 78.2 11.9 72 9.4
2003-05-05 07:58:42 51°20.94 3°1.97 77.9 12 71 9.4
2003-05-05 07:58:48 51°20.94 3°2 76.9 12 71 9.3
2003-05-05 07:58:54 51°20.95 3°2.03 75.9 12 69 9.4
2003-05-05 07:58:58 51°20.95 3°2.05 75.7 11.9 70 9.4
2003-05-05 07:59:02 51°20.96 3°2.07 75.1 12 70 9.4
2003-05-05 07:59:08 51°20.97 3°2.1 75.1 12.1 68 9.4
2003-05-05 07:59:14 51°20.97 3°2.13 74.7 12 70 9.5
2003-05-05 07:59:18 51°20.98 3°2.15 74.7 12 67 9.5
2003-05-05 07:59:22 51°20.98 3°2.17 75.4 11.9 70 9.4
2003-05-05 07:59:28 51°20.99 3°2.2 76.1 12 70 9.5
2003-05-05 07:59:34 51°21 3°2.23 76.4 12 70 9.5
2003-05-05 07:59:38 51°21 3°2.25 76.6 12 72 9.5
2003-05-05 07:59:42 51°21 3°2.27 76.8 11.9 71 9.5
2003-05-05 07:59:48 51°21.01 3°2.3 76.9 11.9 70 9.6
2003-05-05 07:59:54 51°21.02 3°2.33 76.2 12 69 9.6
2003-05-05 07:59:58 51°21.02 3°2.35 75.4 12 70 9.5
2003-05-05 08:00:04 51°21.03 3°2.38 74.8 12 68 9.6
2003-05-05 08:00:08 51°21.03 3°2.4 74.8 11.9 70 9.6
2003-05-05 08:00:14 51°21.04 3°2.43 75.7 11.9 70 9.6
2003-05-05 08:00:18 51°21.04 3°2.45 76.2 12 71 9.6
2003-05-05 08:00:22 51°21.05 3°2.47 76 12.1 71 9.6
2003-05-05 08:00:28 51°21.06 3°2.5 76.8 12 72 9.6
2003-05-05 08:00:34 51°21.06 3°2.53 77.3 12 74 9.7
2003-05-05 08:00:38 51°21.07 3°2.55 77.5 12 71 9.6
2003-05-05 08:00:42 51°21.07 3°2.57 76.7 11.9 71 9.6
2003-05-05 08:00:48 51°21.08 3°2.6 76.2 11.9 70 9.6
2003-05-05 08:00:54 51°21.08 3°2.63 75.8 11.9 70 9.6
2003-05-05 08:00:58 51°21.09 3°2.65 75.4 11.9 70 9.6
2003-05-05 08:01:02 51°21.09 3°2.67 75.2 12 70 9.6
2003-05-05 08:01:08 51°21.1 3°2.7 75.1 12 69 9.6
2003-05-05 08:01:14 51°21.11 3°2.73 75 12 70 9.7
2003-05-05 08:01:18 51°21.11 3°2.75 75.7 11.9 70 9.6
2003-05-05 08:01:22 51°21.12 3°2.77 76.4 11.9 71 9.6
2003-05-05 08:01:28 51°21.12 3°2.8 76.8 12 71 9.6
2003-05-05 08:01:34 51°21.13 3°2.83 76.8 12 72 9.6
2003-05-05 08:01:38 51°21.13 3°2.85 76.7 12 71 9.6
2003-05-05 08:01:42 51°21.14 3°2.87 75.9 11.9 71 9.7
2003-05-05 08:01:48 51°21.14 3°2.9 75.4 11.9 68 9.6
2003-05-05 08:01:54 51°21.15 3°2.93 75.2 12 69 9.6
2003-05-05 08:01:58 51°21.16 3°2.95 74.3 12 68 9.6
2003-05-05 08:02:02 51°21.16 3°2.97 74 11.9 68 9.6
2003-05-05 08:02:08 51°21.17 3°3 74.2 11.9 68 9.6
2003-05-05 08:02:14 51°21.18 3°3.03 75 11.9 69 9.7
2003-05-05 08:02:18 51°21.18 3°3.05 75.9 12 71 9.7
2003-05-05 08:02:22 51°21.18 3°3.07 76.4 11.9 71 9.6
2003-05-05 08:02:28 51°21.19 3°3.1 76.5 11.9 72 9.6
2003-05-05 08:02:34 51°21.2 3°3.13 77.2 11.8 72 9.6
2003-05-05 08:02:38 51°21.2 3°3.15 77.4 11.9 72 9.7
2003-05-05 08:02:42 51°21.2 3°3.17 76.9 11.9 72 9.6
2003-05-05 08:02:48 51°21.21 3°3.2 76.2 11.9 70 9.7
2003-05-05 08:02:54 51°21.22 3°3.23 75.4 11.9 70 9.7
2003-05-05 08:02:58 51°21.22 3°3.25 75.2 11.9 69 9.6
2003-05-05 08:03:02 51°21.23 3°3.26 75.3 11.9 70 9.7
2003-05-05 08:03:08 51°21.23 3°3.29 75.6 11.8 70 9.6
2003-05-05 08:03:14 51°21.24 3°3.32 76.3 11.8 71 9.7
2003-05-05 08:03:18 51°21.24 3°3.34 76.9 11.7 71 9.6
2003-05-05 08:03:22 51°21.25 3°3.36 77.4 11.6 72 9.7
2003-05-05 08:03:28 51°21.25 3°3.39 78.2 11.5 73 9.7
2003-05-05 08:03:34 51°21.26 3°3.42 78.5 11.6 74 9.7
2003-05-05 08:03:38 51°21.26 3°3.44 78.1 11.7 71 9.7
2003-05-05 08:03:42 51°21.27 3°3.46 76.9 11.5 70 9.7
2003-05-05 08:03:48 51°21.27 3°3.49 76.4 11.3 70 9.7
2003-05-05 08:03:54 51°21.28 3°3.52 76 11.4 70 9.7
2003-05-05 08:03:58 51°21.29 3°3.54 75.1 11.4 69 9.7
2003-05-05 08:04:02 51°21.29 3°3.56 74.9 11.3 70 9.7
2003-05-05 08:04:08 51°21.3 3°3.58 74.8 11.3 68 9.8
2003-05-05 08:04:14 51°21.3 3°3.61 75.2 11.1 69 9.7
2003-05-05 08:04:18 51°21.31 3°3.63 75.8 11.1 71 9.7
2003-05-05 08:04:22 51°21.31 3°3.65 75.8 11.1 69 9.7
2003-05-05 08:04:28 51°21.32 3°3.68 76 11 72 9.7
2003-05-05 08:04:34 51°21.32 3°3.7 76.2 10.9 71 9.7
2003-05-05 08:04:38 51°21.33 3°3.72 75.9 10.6 69 9.7
2003-05-05 08:04:44 51°21.33 3°3.75 75.6 10.4 69 9.8
2003-05-05 08:04:48 51°21.34 3°3.77 76.2 10.2 71 9.7
2003-05-05 08:04:54 51°21.34 3°3.79 76.9 9.9 71 9.8
2003-05-05 08:04:58 51°21.35 3°3.81 77.3 9.7 71 9.8
2003-05-05 08:05:02 51°21.35 3°3.82 77.7 9.4 71 9.8
2003-05-05 08:05:08 51°21.35 3°3.85 78 9.1 72 9.8
2003-05-05 08:05:14 51°21.36 3°3.87 77.7 9 72 9.8
2003-05-05 08:05:18 51°21.36 3°3.88 77.2 8.9 70 9.9
2003-05-05 08:05:22 51°21.37 3°3.9 76.6 8.7 69 9.9
2003-05-05 08:05:28 51°21.37 3°3.92 76.2 8.6 69 9.9
2003-05-05 08:05:34 51°21.38 3°3.94 76.1 8.6 69 9.9
2003-05-05 08:05:38 51°21.38 3°3.96 75.8 8.5 69 9.9
2003-05-05 08:05:42 51°21.38 3°3.97 75.8 8.4 70 9.9
2003-05-05 08:05:48 51°21.39 3°3.99 76 8.3 70 9.8
2003-05-05 08:05:54 51°21.39 3°4.01 76.1 8.3 70 9.8
2003-05-05 08:05:58 51°21.39 3°4.02 76.1 8.2 69 9.9
2003-05-05 08:06:02 51°21.4 3°4.04 76.4 8.2 69 9.9
2003-05-05 08:06:08 51°21.4 3°4.06 76.8 8.2 72 9.9
2003-05-05 08:06:14 51°21.41 3°4.08 76.9 8 70 9.9
2003-05-05 08:06:18 51°21.41 3°4.09 76.6 8 70 9.9
2003-05-05 08:06:22 51°21.41 3°4.11 76.5 8 69 9.9
2003-05-05 08:06:28 51°21.42 3°4.13 76.4 8 72 9.9
2003-05-05 08:06:34 51°21.42 3°4.15 76.3 7.9 68 9.8
2003-05-05 08:06:38 51°21.42 3°4.16 76.3 7.8 72 9.9
2003-05-05 08:06:42 51°21.43 3°4.17 76 7.7 68 9.9
2003-05-05 08:06:48 51°21.43 3°4.19 75.7 7.7 70 9.9
2003-05-05 08:06:54 51°21.44 3°4.21 76.1 7.7 68 9.9
2003-05-05 08:06:58 51°21.44 3°4.22 76.3 7.6 72 9.9
2003-05-05 08:07:02 51°21.44 3°4.24 76.3 7.6 69 9.9
2003-05-05 08:07:08 51°21.45 3°4.25 76.4 7.6 70 9.9
2003-05-05 08:07:14 51°21.45 3°4.27 76.6 7.5 69 9.8
2003-05-05 08:07:18 51°21.45 3°4.29 76.8 7.5 73 9.9
2003-05-05 08:07:22 51°21.46 3°4.3 76.7 7.5 69 9.9
2003-05-05 08:07:28 51°21.46 3°4.32 76.8 7.4 72 9.9
2003-05-05 08:07:34 51°21.46 3°4.34 77 7.5 72 9.9
2003-05-05 08:07:38 51°21.47 3°4.35 76.8 7.4 70 9.9
2003-05-05 08:07:42 51°21.47 3°4.36 77.1 7.4 71 9.9
2003-05-05 08:07:48 51°21.47 3°4.38 77.2 7.4 71 10
2003-05-05 08:07:54 51°21.48 3°4.4 77.2 7.4 71 9.9
2003-05-05 08:07:58 51°21.48 3°4.41 77.3 7.3 70 10
2003-05-05 08:08:02 51°21.48 3°4.42 77.2 7.4 71 10
2003-05-05 08:08:08 51°21.49 3°4.44 77.1 7.3 71 10.1
2003-05-05 08:08:14 51°21.49 3°4.46 76.9 7.2 72 10.1
2003-05-05 08:08:18 51°21.49 3°4.47 76.8 7 68 10
2003-05-05 08:08:22 51°21.5 3°4.48 76.5 7 69 10
2003-05-05 08:08:28 51°21.5 3°4.5 76.1 6.9 70 10
2003-05-05 08:08:34 51°21.5 3°4.52 76.2 6.8 68 10
2003-05-05 08:08:38 51°21.51 3°4.53 76.1 6.7 69 10.1
2003-05-05 08:08:44 51°21.51 3°4.54 76 6.6 70 10.1
2003-05-05 08:08:48 51°21.51 3°4.55 76.2 6.6 70 10.1
2003-05-05 08:08:54 51°21.52 3°4.57 76 6.5 70 10.1
2003-05-05 08:08:58 51°21.52 3°4.58 76.3 6.5 70 10.1
2003-05-05 08:09:02 51°21.52 3°4.59 76.3 6.5 69 10.1
2003-05-05 08:09:08 51°21.53 3°4.61 76.5 6.4 71 10.2
2003-05-05 08:09:14 51°21.53 3°4.62 76.4 6.4 70 10.2
2003-05-05 08:09:18 51°21.53 3°4.63 76.4 6.4 70 10.2
2003-05-05 08:09:22 51°21.53 3°4.65 76.1 6.4 69 10.2
2003-05-05 08:09:28 51°21.54 3°4.66 76.1 6.3 69 10.2
2003-05-05 08:09:34 51°21.54 3°4.68 76.1 6.3 68 10.2
2003-05-05 08:09:38 51°21.55 3°4.69 76.1 6.4 69 10.1
2003-05-05 08:09:42 51°21.55 3°4.7 75.9 6.7 68 10.2
2003-05-05 08:09:48 51°21.55 3°4.71 75.9 6.7 69 10.2
2003-05-05 08:09:54 51°21.56 3°4.73 75.8 6.9 69 10.2
2003-05-05 08:09:58 51°21.56 3°4.74 75.7 6.9 69 10.2
2003-05-05 08:10:02 51°21.56 3°4.75 75.6 7.1 69 10.1
2003-05-05 08:10:08 51°21.57 3°4.77 75.5 7.2 69 10.2
2003-05-05 08:10:14 51°21.57 3°4.79 75.4 7.3 70 10.2
2003-05-05 08:10:18 51°21.57 3°4.8 75.6 7.5 69 10.2
2003-05-05 08:10:22 51°21.58 3°4.82 75.6 7.7 69 10.2
2003-05-05 08:10:28 51°21.58 3°4.83 76 7.9 71 10.3
2003-05-05 08:10:34 51°21.59 3°4.85 76 8.1 70 10.2
2003-05-05 08:10:38 51°21.59 3°4.87 76.3 8.2 69 10.2
2003-05-05 08:10:42 51°21.59 3°4.88 76.2 8.3 70 10.2
2003-05-05 08:10:48 51°21.6 3°4.9 76.6 8.4 70 10.2
2003-05-05 08:10:54 51°21.6 3°4.92 76.7 8.5 70 10.2
2003-05-05 08:10:58 51°21.6 3°4.94 76.8 8.6 71 10.3
2003-05-05 08:11:02 51°21.61 3°4.95 76.6 8.8 70 10.2
2003-05-05 08:11:08 51°21.61 3°4.98 76.5 8.9 70 10.2
2003-05-05 08:11:14 51°21.62 3°5 76.2 9 69 10.2
2003-05-05 08:11:18 51°21.62 3°5.01 75.3 9.1 66 10.2
2003-05-05 08:11:22 51°21.63 3°5.03 74.1 9.2 67 10.2
2003-05-05 08:11:28 51°21.63 3°5.05 72.5 9.3 64 10.2
2003-05-05 08:11:34 51°21.64 3°5.07 70.5 9.3 63 10.2
2003-05-05 08:11:38 51°21.64 3°5.09 70.1 9.3 62 10.2
2003-05-05 08:11:42 51°21.65 3°5.1 69.2 9.4 60 10.2
2003-05-05 08:11:48 51°21.66 3°5.12 68.8 9.4 62 10.3
2003-05-05 08:11:54 51°21.66 3°5.14 68.3 9.4 60 10.2
2003-05-05 08:11:58 51°21.67 3°5.16 68.5 9.5 62 10.2
2003-05-05 08:12:02 51°21.68 3°5.17 68.2 9.5 60 10.2
2003-05-05 08:12:08 51°21.68 3°5.2 68.2 9.5 61 10.2
2003-05-05 08:12:14 51°21.69 3°5.22 68.5 9.5 61 10.2
2003-05-05 08:12:18 51°21.69 3°5.23 68.6 9.6 61 10.2
2003-05-05 08:12:22 51°21.7 3°5.25 68.6 9.5 62 10.2
2003-05-05 08:12:28 51°21.71 3°5.27 69 9.5 61 10.3
2003-05-05 08:12:34 51°21.72 3°5.29 68.9 9.4 63 10.3
2003-05-05 08:12:38 51°21.72 3°5.31 70.2 9.5 63 10.3
2003-05-05 08:12:44 51°21.73 3°5.33 70 9.5 64 10.3
2003-05-05 08:12:48 51°21.73 3°5.34 69.5 9.5 62 10.2
2003-05-05 08:12:54 51°21.74 3°5.37 70.3 9.6 65 10.3
2003-05-05 08:12:58 51°21.74 3°5.38 69.7 9.6 62 10.3
2003-05-05 08:13:02 51°21.75 3°5.4 69.7 9.5 63 10.3
2003-05-05 08:13:08 51°21.76 3°5.42 69.4 9.6 61 10.3
2003-05-05 08:13:14 51°21.76 3°5.44 69.4 9.5 62 10.3
2003-05-05 08:13:18 51°21.77 3°5.46 69.2 9.6 63 10.3
2003-05-05 08:13:24 51°21.78 3°5.48 68.5 9.6 61 10.3
2003-05-05 08:13:28 51°21.78 3°5.49 69.1 9.5 63 10.3
2003-05-05 08:13:34 51°21.79 3°5.52 69.6 9.5 62 10.4
2003-05-05 08:13:38 51°21.79 3°5.53 68.6 9.5 60 10.4
2003-05-05 08:13:42 51°21.8 3°5.55 69.1 9.6 65 10.3
2003-05-05 08:13:48 51°21.8 3°5.57 69.9 9.7 64 10.3
2003-05-05 08:13:54 51°21.81 3°5.59 69.7 9.4 64 10.4
2003-05-05 08:13:58 51°21.82 3°5.61 69.5 9.6 64 10.4
2003-05-05 08:14:02 51°21.82 3°5.62 69.1 9.5 63 10.5
2003-05-05 08:14:08 51°21.83 3°5.65 69.3 9.5 64 10.5
2003-05-05 08:14:14 51°21.84 3°5.67 69.4 9.5 62 10.5
2003-05-05 08:14:18 51°21.84 3°5.68 68.6 9.5 63 10.4
2003-05-05 08:14:22 51°21.85 3°5.7 68.8 9.6 62 10.5
2003-05-05 08:14:28 51°21.85 3°5.72 69.5 9.8 63 10.5
2003-05-05 08:14:34 51°21.86 3°5.75 69.6 10.3 63 10.5
2003-05-05 08:14:38 51°21.86 3°5.76 69.2 10.3 64 10.6
2003-05-05 08:14:42 51°21.87 3°5.78 70.6 10.6 66 10.5
2003-05-05 08:14:48 51°21.88 3°5.8 71.8 10.8 68 10.6
2003-05-05 08:14:54 51°21.88 3°5.83 72.8 10.9 68 10.5
2003-05-05 08:14:58 51°21.89 3°5.85 74.1 10.8 70 10.5
2003-05-05 08:15:02 51°21.89 3°5.87 74.7 10.9 71 10.6
2003-05-05 08:15:08 51°21.9 3°5.89 74.7 10.9 70 10.6
2003-05-05 08:15:14 51°21.9 3°5.92 75 10.9 71 10.5
2003-05-05 08:15:18 51°21.91 3°5.94 75.4 10.9 71 10.5
2003-05-05 08:15:22 51°21.91 3°5.96 75.4 11 71 10.6
2003-05-05 08:15:28 51°21.92 3°5.99 75.4 10.9 72 10.5
2003-05-05 08:15:34 51°21.92 3°6.01 75.3 11 72 10.6
2003-05-05 08:15:38 51°21.93 3°6.03 74.4 11 69 10.6
2003-05-05 08:15:42 51°21.93 3°6.05 74 11.1 71 10.6
2003-05-05 08:15:48 51°21.94 3°6.08 73.3 11.1 67 10.6
2003-05-05 08:15:54 51°21.94 3°6.11 73.3 11.1 70 10.6
2003-05-05 08:15:58 51°21.95 3°6.12 73.3 11 68 10.6
2003-05-05 08:16:02 51°21.95 3°6.14 74.1 11.1 70 10.6
2003-05-05 08:16:08 51°21.96 3°6.17 74.1 11.1 69 10.6
2003-05-05 08:16:14 51°21.97 3°6.2 73.9 11.1 70 10.7
2003-05-05 08:16:18 51°21.97 3°6.22 73.9 11.1 68 10.6
2003-05-05 08:16:22 51°21.97 3°6.23 74.3 11.2 69 10.7
2003-05-05 08:16:28 51°21.98 3°6.26 75 11.2 73 10.7
2003-05-05 08:16:34 51°21.99 3°6.29 75 11.1 71 10.8
2003-05-05 08:16:38 51°21.99 3°6.31 74.9 11 70 10.8
2003-05-05 08:16:44 51°22 3°6.34 74.9 11.1 72 10.8
2003-05-05 08:16:48 51°22 3°6.35 74.3 11.1 68 10.8
2003-05-05 08:16:54 51°22.01 3°6.38 74.7 11 70 10.8
2003-05-05 08:16:58 51°22.01 3°6.4 75.4 11 72 10.8
2003-05-05 08:17:02 51°22.02 3°6.42 75.1 11 71 10.8
2003-05-05 08:17:08 51°22.02 3°6.45 75.2 11 72 10.8
2003-05-05 08:17:14 51°22.03 3°6.48 75.5 11 72 10.8